createdAt,value
2023-04-21T00:02:15.908Z,86.10
2023-04-21T00:04:42.466Z,87.15
2023-04-21T00:07:08.884Z,87.63
2023-04-21T00:09:35.237Z,88.00
2023-04-21T00:12:01.639Z,87.33
2023-04-21T00:14:28.082Z,88.09
2023-04-21T00:16:54.392Z,88.90
2023-04-21T00:19:21.004Z,89.25
2023-04-21T00:21:47.571Z,88.89
2023-04-21T00:24:13.893Z,89.15
2023-04-21T00:26:40.225Z,88.95
2023-04-21T00:29:07.049Z,89.11
2023-04-21T00:31:34.017Z,89.28
2023-04-21T00:34:00.428Z,89.45
2023-04-21T00:36:28.295Z,89.59
2023-04-21T00:38:54.938Z,89.32
2023-04-21T00:41:21.731Z,89.75
2023-04-21T00:44:01.280Z,89.71
2023-04-21T00:46:28.739Z,89.63
2023-04-21T00:48:55.132Z,90.07
2023-04-21T00:51:21.577Z,89.83
2023-04-21T00:53:48.153Z,89.94
2023-04-21T00:56:14.529Z,89.92
2023-04-21T00:58:42.542Z,89.83
2023-04-21T01:01:08.902Z,89.93
2023-04-21T01:03:35.828Z,89.64
2023-04-21T01:06:02.989Z,90.29
2023-04-21T01:08:29.488Z,89.92
2023-04-21T01:10:56.145Z,89.90
2023-04-21T01:13:22.504Z,90.10
2023-04-21T01:15:49.281Z,90.14
2023-04-21T01:18:16.981Z,90.14
2023-04-21T01:20:44.672Z,89.69
2023-04-21T01:23:11.025Z,89.91
2023-04-21T01:25:37.351Z,90.82
2023-04-21T01:28:04.057Z,90.52
2023-04-21T01:30:30.537Z,90.68
2023-04-21T01:33:00.142Z,90.74
2023-04-21T01:35:26.633Z,91.23
2023-04-21T01:37:53.111Z,90.94
2023-04-21T01:40:19.551Z,91.32
2023-04-21T01:42:45.913Z,91.37
2023-04-21T01:45:13.110Z,91.21
2023-04-21T01:47:39.595Z,91.78
2023-04-21T01:50:06.426Z,91.74
2023-04-21T01:52:32.740Z,91.83
2023-04-21T01:55:00.072Z,91.98
2023-04-21T01:57:26.657Z,91.42
2023-04-21T01:59:53.080Z,91.68
2023-04-21T02:02:19.577Z,92.24
2023-04-21T02:04:46.019Z,92.20
2023-04-21T02:07:12.421Z,92.01
2023-04-21T02:09:40.267Z,92.25
2023-04-21T02:12:07.055Z,91.69
2023-04-21T02:14:33.393Z,92.33
2023-04-21T02:16:59.812Z,92.06
2023-04-21T02:19:26.330Z,91.82
2023-04-21T02:21:54.389Z,92.53
2023-04-21T02:24:21.857Z,92.42
2023-04-21T02:26:48.184Z,92.48
2023-04-21T02:29:14.531Z,92.49
2023-04-21T02:31:57.301Z,92.84
2023-04-21T02:34:27.497Z,92.93
2023-04-21T02:36:54.408Z,93.24
2023-04-21T02:39:21.012Z,92.92
2023-04-21T02:41:47.467Z,92.85
2023-04-21T02:44:13.800Z,93.22
2023-04-21T02:46:43.668Z,92.97
2023-04-21T02:49:10.458Z,93.19
2023-04-21T02:51:37.310Z,93.71
2023-04-21T02:54:03.802Z,93.78
2023-04-21T02:56:31.549Z,93.89
2023-04-21T02:58:57.869Z,94.07
2023-04-21T03:01:24.349Z,94.25
2023-04-21T03:03:51.294Z,94.54
2023-04-21T03:06:17.694Z,93.91
2023-04-21T03:08:45.727Z,94.47
2023-04-21T03:11:12.036Z,94.75
2023-04-21T03:13:38.499Z,94.21
2023-04-21T03:16:05.357Z,94.21
2023-04-21T03:18:35.843Z,94.24
2023-04-21T03:21:02.223Z,94.01
2023-04-21T03:23:28.520Z,94.55
2023-04-21T03:25:54.905Z,94.68
2023-04-21T03:28:21.224Z,94.46
2023-04-21T03:30:47.577Z,94.40
2023-04-21T03:33:14.159Z,94.66
2023-04-21T03:35:40.685Z,94.11
2023-04-21T03:38:08.100Z,94.48
2023-04-21T03:40:35.287Z,94.61
2023-04-21T03:43:02.783Z,94.19
2023-04-21T03:45:29.128Z,94.76
2023-04-21T03:47:58.051Z,94.17
2023-04-21T03:50:24.476Z,94.11
2023-04-21T03:52:50.790Z,94.80
2023-04-21T03:55:17.214Z,94.32
2023-04-21T03:57:43.782Z,94.60
2023-04-21T04:00:10.721Z,94.67
2023-04-21T04:02:40.848Z,94.90
2023-04-21T04:05:08.172Z,94.53
2023-04-21T04:07:35.258Z,94.51
2023-04-21T04:10:01.616Z,94.40
2023-04-21T04:12:28.029Z,94.37
2023-04-21T04:14:54.361Z,94.69
2023-04-21T04:17:20.719Z,94.94
2023-04-21T04:19:47.037Z,94.83
2023-04-21T04:22:13.349Z,94.65
2023-04-21T04:24:39.759Z,94.33
2023-04-21T04:27:06.838Z,94.44
2023-04-21T04:29:33.168Z,94.80
2023-04-21T04:32:01.552Z,94.33
2023-04-21T04:34:27.901Z,94.38
2023-04-21T04:36:54.223Z,94.90
2023-04-21T04:39:22.073Z,94.97
2023-04-21T04:41:48.621Z,94.78
2023-04-21T04:44:17.514Z,94.83
2023-04-21T04:46:45.376Z,94.63
2023-04-21T04:49:11.736Z,94.97
2023-04-21T04:51:38.059Z,94.51
2023-04-21T04:54:04.430Z,95.03
2023-04-21T04:56:31.002Z,94.62
2023-04-21T04:58:57.337Z,94.81
2023-04-21T05:01:29.984Z,94.67
2023-04-21T05:03:57.132Z,94.98
2023-04-21T05:06:23.870Z,94.70
2023-04-21T05:08:50.203Z,95.02
2023-04-21T05:11:16.560Z,95.22
2023-04-21T05:13:42.885Z,94.84
2023-04-21T05:16:10.307Z,95.04
2023-04-21T05:18:37.750Z,94.91
2023-04-21T05:21:04.629Z,94.68
2023-04-21T05:23:31.297Z,94.92
2023-04-21T05:25:57.657Z,94.95
2023-04-21T05:28:24.089Z,94.68
2023-04-21T05:30:54.009Z,94.56
2023-04-21T05:33:21.094Z,95.02
2023-04-21T05:35:47.478Z,94.83
2023-04-21T05:38:13.844Z,94.39
2023-04-21T05:40:40.266Z,95.03
2023-04-21T05:43:06.590Z,94.67
2023-04-21T05:45:32.921Z,94.63
2023-04-21T05:47:59.291Z,94.74
2023-04-21T05:50:28.403Z,95.14
2023-04-21T05:52:54.810Z,94.86
2023-04-21T05:55:21.309Z,95.05
2023-04-21T05:57:47.674Z,95.42
2023-04-21T06:00:14.551Z,95.53
2023-04-21T06:02:41.033Z,94.96
2023-04-21T06:05:08.005Z,95.09
2023-04-21T06:07:37.286Z,95.17
2023-04-21T06:10:04.349Z,95.12
2023-04-21T06:12:30.745Z,94.94
2023-04-21T06:14:57.635Z,95.02
2023-04-21T06:17:24.291Z,94.94
2023-04-21T06:19:54.042Z,95.04
2023-04-21T06:22:20.895Z,95.48
2023-04-21T06:24:47.416Z,95.20
2023-04-21T06:27:13.965Z,95.37
2023-04-21T06:29:42.046Z,94.88
2023-04-21T06:32:09.397Z,95.18
2023-04-21T06:34:35.897Z,94.96
2023-04-21T06:37:02.324Z,95.17
2023-04-21T06:39:28.978Z,94.91
2023-04-21T06:41:55.463Z,95.30
2023-04-21T06:44:26.298Z,95.05
2023-04-21T06:46:52.873Z,95.39
2023-04-21T06:49:19.538Z,95.21
2023-04-21T06:51:46.322Z,95.36
2023-04-21T06:54:12.713Z,95.32
2023-04-21T06:56:39.115Z,95.31
2023-04-21T06:59:05.507Z,95.14
2023-04-21T07:01:32.012Z,95.02
2023-04-21T07:03:58.537Z,95.28
2023-04-21T07:06:25.065Z,94.88
2023-04-21T07:08:51.503Z,95.25
2023-04-21T07:11:17.964Z,95.30
2023-04-21T07:13:44.326Z,95.00
2023-04-21T07:16:10.888Z,94.91
2023-04-21T07:18:39.810Z,94.45
2023-04-21T07:21:06.235Z,94.34
2023-04-21T07:23:32.615Z,94.48
2023-04-21T07:25:59.317Z,94.38
2023-04-21T07:28:26.492Z,94.51
2023-04-21T07:30:52.955Z,94.40
2023-04-21T07:33:19.366Z,94.34
2023-04-21T07:35:45.861Z,94.04
2023-04-21T07:38:12.286Z,94.13
2023-04-21T07:40:38.704Z,93.96
2023-04-21T07:43:05.205Z,93.39
2023-04-21T07:45:31.615Z,92.83
2023-04-21T07:47:59.112Z,92.99
2023-04-21T07:50:25.687Z,91.55
2023-04-21T07:52:52.090Z,91.08
2023-04-21T07:55:18.490Z,90.65
2023-04-21T07:57:44.870Z,91.15
2023-04-21T08:00:11.861Z,90.82
2023-04-21T08:02:41.859Z,89.79
2023-04-21T08:05:08.820Z,89.07
2023-04-21T08:07:35.843Z,89.19
2023-04-21T08:10:02.721Z,89.20
2023-04-21T08:12:29.599Z,88.72
2023-04-21T08:14:55.981Z,88.27
2023-04-21T08:17:22.491Z,88.36
2023-04-21T08:19:49.018Z,88.83
2023-04-21T08:22:15.678Z,87.80
2023-04-21T08:24:42.127Z,86.97
2023-04-21T08:27:08.603Z,87.78
2023-04-21T08:29:34.997Z,87.13
2023-04-21T08:32:01.504Z,86.84
2023-04-21T08:34:28.186Z,86.75
2023-04-21T08:36:54.917Z,86.43
2023-04-21T08:39:21.520Z,87.21
2023-04-21T08:41:48.462Z,86.92
2023-04-21T08:44:15.757Z,87.28
2023-04-21T08:46:44.571Z,86.80
2023-04-21T08:49:12.888Z,87.50
2023-04-21T08:51:39.796Z,86.33
2023-04-21T08:54:06.268Z,86.39
2023-04-21T08:56:32.698Z,85.51
2023-04-21T08:58:59.076Z,85.87
2023-04-21T09:01:25.724Z,85.44
2023-04-21T09:03:52.275Z,85.23
2023-04-21T09:06:19.148Z,85.05
2023-04-21T09:08:55.726Z,85.21
2023-04-21T09:11:22.626Z,85.25
2023-04-21T09:13:49.019Z,84.74
2023-04-21T09:16:18.592Z,85.65
2023-04-21T09:18:45.145Z,85.46
2023-04-21T09:21:18.286Z,85.01
2023-04-21T09:23:50.608Z,85.68
2023-04-21T09:26:18.918Z,84.69
2023-04-21T09:28:47.383Z,85.78
2023-04-21T09:31:16.771Z,85.58
2023-04-21T09:36:25.139Z,84.02
2023-04-21T09:39:12.564Z,82.71
2023-04-21T09:41:40.873Z,83.88
2023-04-21T09:44:07.363Z,83.68
2023-04-21T09:46:36.059Z,82.94
2023-04-21T09:49:03.515Z,83.25
2023-04-21T09:54:25.945Z,82.73
2023-04-21T09:56:58.081Z,83.24
2023-04-21T09:59:37.037Z,83.17
2023-04-21T10:02:06.067Z,81.84
2023-04-21T10:04:35.088Z,81.60
2023-04-21T10:07:02.042Z,81.44
2023-04-21T10:09:37.031Z,80.97
2023-04-21T10:12:04.493Z,81.19
2023-04-21T10:14:31.448Z,82.75
2023-04-21T10:17:04.473Z,82.46
2023-04-21T10:19:36.108Z,80.87
2023-04-21T10:22:02.471Z,80.05
2023-04-21T10:24:30.250Z,80.53
2023-04-21T10:26:59.776Z,80.07
2023-04-21T10:29:40.209Z,80.06
2023-04-21T10:32:31.833Z,80.05
2023-04-21T10:34:58.278Z,79.85
2023-04-21T10:37:24.677Z,79.12
2023-04-21T10:39:55.051Z,79.36
2023-04-21T10:42:29.946Z,78.54
2023-04-21T10:44:56.358Z,78.52
2023-04-21T10:47:44.665Z,79.65
2023-04-21T10:50:28.142Z,78.79
2023-04-21T10:53:12.217Z,79.08
2023-04-21T10:55:39.516Z,79.84
2023-04-21T10:58:09.153Z,79.12
2023-04-21T11:00:38.655Z,78.58
2023-04-21T11:03:07.106Z,78.60
2023-04-21T11:05:39.331Z,79.03
2023-04-21T11:08:15.694Z,78.29
2023-04-21T11:11:00.468Z,79.29
2023-04-21T11:13:33.463Z,78.65
2023-04-21T11:16:07.070Z,78.50
2023-04-21T11:18:38.835Z,78.02
2023-04-21T11:21:24.553Z,77.08
2023-04-21T11:23:56.102Z,76.49
2023-04-21T11:26:38.176Z,76.84
2023-04-21T11:29:08.433Z,76.82
2023-04-21T11:31:36.754Z,76.49
2023-04-21T11:34:05.452Z,74.44
2023-04-21T11:36:36.043Z,73.94
2023-04-21T11:39:10.777Z,74.46
2023-04-21T11:41:43.251Z,72.96
2023-04-21T11:44:11.183Z,72.21
2023-04-21T11:46:38.149Z,73.29
2023-04-21T11:49:06.774Z,74.28
2023-04-21T11:51:41.431Z,70.69
2023-04-21T11:54:13.027Z,70.08
2023-04-21T11:56:42.306Z,68.52
2023-04-21T11:59:14.061Z,68.67
2023-04-21T12:01:47.673Z,68.44
2023-04-21T12:04:16.122Z,69.04
2023-04-21T12:06:43.387Z,68.97
2023-04-21T12:09:17.224Z,69.49
2023-04-21T12:11:49.662Z,69.23
2023-04-21T12:14:18.190Z,70.23
2023-04-21T12:16:44.629Z,70.38
2023-04-21T12:19:11.237Z,69.50
2023-04-21T12:21:39.399Z,69.12
2023-04-21T12:24:06.090Z,68.95
2023-04-21T12:26:32.454Z,68.74
2023-04-21T12:29:00.481Z,69.17
2023-04-21T12:31:26.956Z,68.74
2023-04-21T12:33:53.477Z,68.60
2023-04-21T12:36:20.179Z,69.28
2023-04-21T12:38:46.583Z,68.42
2023-04-21T12:41:12.970Z,68.12
2023-04-21T12:43:39.382Z,67.67
2023-04-21T12:46:05.966Z,68.30
2023-04-21T12:48:32.521Z,67.25
2023-04-21T12:50:58.888Z,68.55
2023-04-21T12:53:25.354Z,66.80
2023-04-21T12:56:03.395Z,67.94
2023-04-21T12:58:31.432Z,64.99
2023-04-21T13:00:57.902Z,65.03
2023-04-21T13:03:24.500Z,64.52
2023-04-21T13:05:51.748Z,64.41
2023-04-21T13:08:18.192Z,64.43
2023-04-21T13:10:45.974Z,64.55
2023-04-21T13:13:12.399Z,64.84
2023-04-21T13:15:39.057Z,63.98
2023-04-21T13:18:05.694Z,63.27
2023-04-21T13:20:32.110Z,63.78
2023-04-21T13:22:58.627Z,62.89
2023-04-21T13:25:25.050Z,64.19
2023-04-21T13:27:53.350Z,64.23
2023-04-21T13:30:20.183Z,64.85
2023-04-21T13:32:46.899Z,63.40
2023-04-21T13:35:13.346Z,63.41
2023-04-21T13:37:41.589Z,63.71
2023-04-21T13:40:09.961Z,62.56
2023-04-21T13:42:37.440Z,63.34
2023-04-21T13:45:04.887Z,63.15
2023-04-21T13:47:34.759Z,62.60
2023-04-21T13:50:01.163Z,62.84
2023-04-21T13:52:27.781Z,63.29
2023-04-21T13:54:54.369Z,62.94
2023-04-21T13:57:21.169Z,63.91
2023-04-21T13:59:47.954Z,63.33
2023-04-21T14:02:14.391Z,62.63
2023-04-21T14:04:41.129Z,62.64
2023-04-21T14:07:08.092Z,62.92
2023-04-21T14:09:35.084Z,63.15
2023-04-21T14:12:03.410Z,62.75
2023-04-21T14:14:38.565Z,62.13
2023-04-21T14:17:06.488Z,60.78
2023-04-21T14:19:33.196Z,58.18
2023-04-21T14:21:59.798Z,57.17
2023-04-21T14:24:28.636Z,57.93
2023-04-21T14:26:56.101Z,57.94
2023-04-21T14:29:22.869Z,55.86
2023-04-21T14:31:50.289Z,55.13
2023-04-21T14:34:16.857Z,55.90
2023-04-21T14:36:43.316Z,55.73
2023-04-21T14:39:10.178Z,55.77
2023-04-21T14:41:36.710Z,54.90
2023-04-21T14:44:03.782Z,53.59
2023-04-21T14:46:30.461Z,54.43
2023-04-21T14:48:57.508Z,53.87
2023-04-21T14:51:24.008Z,54.17
2023-04-21T14:53:51.114Z,53.48
2023-04-21T14:56:18.638Z,54.90
2023-04-21T14:58:45.124Z,54.16
2023-04-21T15:01:11.801Z,54.20
2023-04-21T15:03:38.395Z,54.54
2023-04-21T15:06:05.474Z,54.80
2023-04-21T15:08:32.193Z,55.04
2023-04-21T15:10:58.657Z,54.50
2023-04-21T15:13:25.848Z,54.60
2023-04-21T15:15:52.229Z,55.33
2023-04-21T15:18:18.719Z,54.80
2023-04-21T15:20:45.909Z,54.10
2023-04-21T15:23:12.624Z,54.06
2023-04-21T15:25:39.886Z,55.52
2023-04-21T15:28:07.352Z,54.30
2023-04-21T15:30:34.070Z,54.59
2023-04-21T15:33:01.216Z,54.85
2023-04-21T15:35:27.586Z,54.28
2023-04-21T15:37:54.074Z,53.20
2023-04-21T15:40:20.719Z,54.15
2023-04-21T15:42:47.155Z,54.02
2023-04-21T15:45:13.532Z,55.06
2023-04-21T15:47:39.929Z,53.28
2023-04-21T15:50:07.022Z,54.43
2023-04-21T15:52:36.942Z,55.03
2023-04-21T15:55:03.708Z,54.87
2023-04-21T15:57:30.157Z,55.82
2023-04-21T15:59:56.543Z,56.16
2023-04-21T16:02:23.439Z,58.86
2023-04-21T16:04:50.103Z,57.74
2023-04-21T16:07:16.642Z,58.32
2023-04-21T16:09:43.034Z,57.50
2023-04-21T16:12:10.351Z,56.99
2023-04-21T16:14:53.464Z,56.66
2023-04-21T16:17:26.468Z,56.05
2023-04-21T16:19:53.622Z,56.76
2023-04-21T16:22:20.322Z,56.92
2023-04-21T16:24:46.821Z,57.66
2023-04-21T16:27:13.296Z,56.38
2023-04-21T16:29:39.723Z,56.88
2023-04-21T16:32:06.782Z,56.85
2023-04-21T16:34:33.372Z,56.66
2023-04-21T16:37:00.146Z,55.58
2023-04-21T16:39:27.614Z,55.42
2023-04-21T16:41:53.937Z,54.93
2023-04-21T16:44:20.460Z,55.20
2023-04-21T16:46:46.823Z,54.88
2023-04-21T16:49:13.490Z,54.96
2023-04-21T16:51:44.255Z,55.93
2023-04-21T16:54:13.906Z,55.70
2023-04-21T16:56:40.226Z,56.49
2023-04-21T16:59:09.321Z,56.71
2023-04-21T17:01:35.853Z,56.39
2023-04-21T17:04:02.471Z,57.05
2023-04-21T17:06:29.022Z,56.25
2023-04-21T17:08:59.845Z,57.36
2023-04-21T17:11:31.160Z,57.96
2023-04-21T17:13:57.511Z,57.53
2023-04-21T17:16:24.139Z,57.46
2023-04-21T17:18:50.568Z,57.97
2023-04-21T17:21:16.902Z,58.21
2023-04-21T17:23:43.341Z,58.50
2023-04-21T17:26:12.245Z,59.12
2023-04-21T17:28:39.438Z,59.86
2023-04-21T17:31:15.284Z,60.80
2023-04-21T17:33:43.451Z,60.66
2023-04-21T17:36:09.896Z,60.68
2023-04-21T17:38:36.276Z,61.28
2023-04-21T17:41:04.390Z,61.78
2023-04-21T17:43:30.778Z,61.59
2023-04-21T17:45:57.205Z,61.66
2023-04-21T17:48:23.692Z,62.22
2023-04-21T17:50:50.003Z,61.59
2023-04-21T17:53:17.251Z,61.44
2023-04-21T17:55:43.672Z,62.13
2023-04-21T17:58:12.260Z,61.83
2023-04-21T18:00:39.076Z,61.69
2023-04-21T18:03:05.562Z,62.14
2023-04-21T18:05:32.195Z,63.40
2023-04-21T18:07:58.856Z,63.72
2023-04-21T18:10:28.259Z,64.39
2023-04-21T18:12:56.004Z,65.09
2023-04-21T18:15:22.327Z,64.33
2023-04-21T18:17:48.661Z,65.26
2023-04-21T18:20:15.373Z,65.28
2023-04-21T18:22:43.590Z,65.10
2023-04-21T18:25:11.685Z,65.29
2023-04-21T18:27:39.212Z,65.68
2023-04-21T18:30:08.492Z,65.78
2023-04-21T18:32:36.043Z,66.22
2023-04-21T18:35:03.182Z,66.37
2023-04-21T18:37:29.588Z,66.38
2023-04-21T18:39:56.306Z,67.54
2023-04-21T18:42:22.750Z,67.64
2023-04-21T18:44:49.689Z,67.89
2023-04-21T18:47:16.159Z,68.65
2023-04-21T18:49:42.581Z,69.12
2023-04-21T18:52:09.263Z,69.34
2023-04-21T18:54:35.866Z,69.88
2023-04-21T18:57:03.800Z,70.20
2023-04-21T18:59:30.290Z,70.55
2023-04-21T19:01:56.923Z,71.34
2023-04-21T19:04:23.765Z,71.07
2023-04-21T19:06:50.494Z,71.73
2023-04-21T19:09:17.108Z,72.07
2023-04-21T19:11:43.622Z,72.49
2023-04-21T19:14:10.110Z,72.60
2023-04-21T19:16:36.852Z,73.24
2023-04-21T19:19:04.779Z,73.38
2023-04-21T19:21:31.218Z,73.37
2023-04-21T19:23:58.177Z,74.15
2023-04-21T19:26:24.996Z,73.92
2023-04-21T19:28:51.483Z,74.74
2023-04-21T19:31:21.343Z,74.88
2023-04-21T19:33:49.398Z,75.39
2023-04-21T19:36:15.810Z,75.57
2023-04-21T19:38:42.246Z,75.68
2023-04-21T19:41:08.790Z,76.26
2023-04-21T19:43:35.428Z,76.11
2023-04-21T19:46:01.880Z,76.81
2023-04-21T19:48:28.374Z,76.47
2023-04-21T19:50:54.800Z,76.83
2023-04-21T19:53:21.214Z,76.78
2023-04-21T19:55:48.685Z,77.93
2023-04-21T19:58:28.189Z,77.78
2023-04-21T20:01:03.655Z,78.48
2023-04-21T20:03:31.294Z,79.09
2023-04-21T20:05:57.894Z,78.80
2023-04-21T20:08:24.312Z,80.62
2023-04-21T20:10:50.760Z,81.53
2023-04-21T20:13:17.143Z,72.51
2023-04-21T20:15:43.846Z,69.73
2023-04-21T20:18:10.864Z,67.14
2023-04-21T20:20:37.312Z,65.80
2023-04-21T20:23:03.813Z,65.83
2023-04-21T20:25:30.229Z,65.77
2023-04-21T20:27:56.934Z,67.38
2023-04-21T20:30:23.265Z,70.43
2023-04-21T20:32:50.294Z,72.10
2023-04-21T20:35:17.123Z,74.94
2023-04-21T20:37:44.323Z,79.00
2023-04-21T20:40:11.761Z,78.25
2023-04-21T20:42:38.890Z,80.31
2023-04-21T20:45:06.502Z,81.47
2023-04-21T20:47:33.854Z,81.58
2023-04-21T20:50:00.482Z,81.37
2023-04-21T20:52:26.992Z,82.49
2023-04-21T20:54:53.368Z,81.76
2023-04-21T20:57:19.847Z,82.15
2023-04-21T20:59:46.205Z,82.40
2023-04-21T21:02:12.617Z,83.33
2023-04-21T21:04:39.134Z,83.18
2023-04-21T21:07:06.142Z,84.27
2023-04-21T21:09:32.549Z,84.38
2023-04-21T21:11:59.135Z,84.73
2023-04-21T21:14:25.542Z,85.46
2023-04-21T21:16:54.479Z,85.26
2023-04-21T21:19:21.126Z,85.60
2023-04-21T21:21:47.503Z,86.28
2023-04-21T21:24:13.887Z,87.21
2023-04-21T21:26:42.484Z,87.11
2023-04-21T21:29:09.311Z,87.69
2023-04-21T21:31:35.636Z,87.40
2023-04-21T21:34:03.772Z,88.10
2023-04-21T21:36:31.624Z,87.84
2023-04-21T21:38:57.938Z,87.91
2023-04-21T21:41:24.347Z,88.11
2023-04-21T21:43:50.757Z,87.97
2023-04-21T21:46:18.502Z,88.07
2023-04-21T21:48:45.089Z,87.60
2023-04-21T21:51:11.399Z,87.62
2023-04-21T21:53:37.725Z,87.67
2023-04-21T21:56:04.286Z,88.12
2023-04-21T21:58:30.830Z,87.94
2023-04-21T22:00:57.202Z,88.28
2023-04-21T22:03:23.623Z,88.56
2023-04-21T22:05:50.074Z,88.50
2023-04-21T22:08:16.499Z,88.50
2023-04-21T22:10:43.302Z,88.75
2023-04-21T22:13:09.826Z,88.67
2023-04-21T22:15:37.319Z,89.03
2023-04-21T22:18:04.070Z,89.24
2023-04-21T22:20:30.853Z,89.65
2023-04-21T22:22:57.239Z,89.55
2023-04-21T22:25:29.764Z,90.05
2023-04-21T22:27:57.045Z,90.16
2023-04-21T22:30:23.614Z,89.64
2023-04-21T22:32:50.307Z,90.75
2023-04-21T22:35:16.770Z,92.55
2023-04-21T22:37:43.154Z,92.48
2023-04-21T22:40:10.320Z,93.12
2023-04-21T22:42:37.012Z,92.65
2023-04-21T22:45:05.178Z,92.92
2023-04-21T22:47:33.279Z,92.82
2023-04-21T22:49:59.658Z,92.59
2023-04-21T22:52:26.807Z,92.16
2023-04-21T22:54:53.571Z,91.73
2023-04-21T22:57:20.886Z,92.00
2023-04-21T22:59:47.370Z,92.39
2023-04-21T23:02:13.907Z,92.29
2023-04-21T23:04:40.314Z,92.34
2023-04-21T23:07:06.678Z,92.23
2023-04-21T23:09:32.978Z,92.85
2023-04-21T23:11:59.525Z,92.66
2023-04-21T23:14:26.057Z,91.92
2023-04-21T23:16:52.462Z,92.11
2023-04-21T23:19:19.330Z,92.84
2023-04-21T23:21:46.377Z,92.41
2023-04-21T23:24:12.944Z,92.86
2023-04-21T23:26:39.276Z,92.46
2023-04-21T23:29:05.886Z,92.76
2023-04-21T23:31:32.337Z,92.52
2023-04-21T23:33:59.986Z,92.38
2023-04-21T23:36:29.433Z,92.20
2023-04-21T23:38:55.985Z,92.32
2023-04-21T23:41:22.375Z,92.72
2023-04-21T23:43:48.760Z,92.40
2023-04-21T23:46:15.404Z,92.88
2023-04-21T23:48:41.847Z,92.57
2023-04-21T23:51:08.294Z,93.21
2023-04-21T23:53:34.829Z,92.92
2023-04-21T23:56:01.189Z,92.75
2023-04-21T23:58:27.991Z,92.48
